Time;durP1;ratioP1;P1;durP2;ratioP2;P2;SDS_P1;SDS_P2;PMS_P1;PMS_P2;Temp;Humidity;BMP_temperature;BMP_pressure;BME280_temperature;BME280_humidity;BME280_pressure;Samples;Min_cycle;Max_cycle;Signal;HPM_P1;HPM_P2
2024/04/18 00:00:32;;;;;;;;;;;24.40;36.70;;;;;;5386333;26;19936;-62
2024/04/18 00:03:00;;;;;;;;;;;24.30;36.70;;;;;;5416341;26;19936;-62
2024/04/18 00:05:27;;;;;;;;;;;24.30;36.70;;;;;;5417272;26;20390;-62
2024/04/18 00:07:54;;;;;;;;;;;24.30;36.70;;;;;;5417084;26;19936;-62
2024/04/18 00:10:21;;;;;;;;;;;24.30;36.70;;;;;;5421073;26;20386;-62
2024/04/18 00:12:48;;;;;;;;;;;24.30;36.60;;;;;;5452053;26;19933;-63
2024/04/18 00:15:16;;;;;;;;;;;24.30;36.70;;;;;;5450910;26;19932;-62
2024/04/18 00:17:43;;;;;;;;;;;24.30;36.70;;;;;;5453192;26;20370;-63
2024/04/18 00:20:10;;;;;;;;;;;24.30;36.70;;;;;;5452630;26;19952;-62
2024/04/18 00:22:37;;;;;;;;;;;24.30;36.70;;;;;;5450584;26;20378;-62
2024/04/18 00:25:06;;;;;;;;;;;24.30;36.70;;;;;;5452233;26;19929;-63
2024/04/18 00:27:33;;;;;;;;;;;24.30;36.80;;;;;;5452538;26;19935;-62
2024/04/18 00:30:00;;;;;;;;;;;24.30;36.80;;;;;;5450444;26;19934;-62
2024/04/18 00:32:27;;;;;;;;;;;24.30;36.80;;;;;;5451990;26;20270;-62
2024/04/18 00:34:54;;;;;;;;;;;24.30;36.80;;;;;;5451702;26;19929;-63
2024/04/18 00:37:21;;;;;;;;;;;24.30;36.80;;;;;;5452851;26;19936;-62
2024/04/18 00:39:48;;;;;;;;;;;24.30;36.80;;;;;;5450516;26;20316;-63
2024/04/18 00:42:15;;;;;;;;;;;24.30;36.70;;;;;;5450469;26;20000;-62
2024/04/18 00:44:43;;;;;;;;;;;24.30;36.70;;;;;;5451577;26;19928;-62
2024/04/18 00:47:10;;;;;;;;;;;24.30;36.60;;;;;;5451952;26;20385;-62
2024/04/18 00:49:37;;;;;;;;;;;24.30;36.60;;;;;;5452491;26;19932;-62
2024/04/18 00:52:04;;;;;;;;;;;24.30;36.60;;;;;;5451754;26;19933;-62
2024/04/18 00:54:31;;;;;;;;;;;24.30;36.60;;;;;;5452158;26;19928;-62
2024/04/18 00:56:58;;;;;;;;;;;24.30;36.70;;;;;;5452378;26;19936;-62
2024/04/18 00:59:25;;;;;;;;;;;24.30;36.70;;;;;;5451746;26;19928;-62
2024/04/18 01:01:52;;;;;;;;;;;24.30;36.70;;;;;;5451001;26;19939;-63
2024/04/18 01:04:20;;;;;;;;;;;24.30;36.70;;;;;;5451531;26;19941;-62
2024/04/18 01:06:48;;;;;;;;;;;24.30;36.70;;;;;;5451600;26;19928;-62
2024/04/18 01:09:16;;;;;;;;;;;24.20;36.60;;;;;;5452314;26;19978;-62
2024/04/18 01:11:43;;;;;;;;;;;24.30;36.70;;;;;;5449970;26;19941;-62
2024/04/18 01:14:10;;;;;;;;;;;24.30;36.70;;;;;;5452281;26;19928;-62
2024/04/18 01:16:37;;;;;;;;;;;24.30;36.70;;;;;;5451784;26;19928;-62
2024/04/18 01:19:07;;;;;;;;;;;24.30;36.70;;;;;;5450450;26;19929;-62
2024/04/18 01:21:34;;;;;;;;;;;24.20;36.70;;;;;;5451492;26;20307;-62
2024/04/18 01:24:02;;;;;;;;;;;24.20;36.70;;;;;;5449701;26;19935;-62
2024/04/18 01:26:29;;;;;;;;;;;24.20;36.70;;;;;;5451549;26;19932;-63
2024/04/18 01:28:56;;;;;;;;;;;24.20;36.70;;;;;;5452012;26;19929;-63
2024/04/18 01:31:23;;;;;;;;;;;24.20;36.70;;;;;;5451072;26;20274;-63
2024/04/18 01:33:50;;;;;;;;;;;24.20;36.70;;;;;;5449346;26;19928;-62
2024/04/18 01:36:17;;;;;;;;;;;24.20;36.70;;;;;;5449430;26;19929;-62
2024/04/18 01:38:44;;;;;;;;;;;24.20;36.80;;;;;;5451949;26;19935;-62
2024/04/18 01:41:11;;;;;;;;;;;24.10;36.70;;;;;;5451719;26;19928;-62
2024/04/18 01:43:38;;;;;;;;;;;24.20;36.80;;;;;;5455010;26;19932;-62
2024/04/18 01:46:05;;;;;;;;;;;24.20;36.80;;;;;;5455062;26;19935;-62
2024/04/18 01:48:32;;;;;;;;;;;24.20;36.80;;;;;;5455104;26;19939;-63
2024/04/18 01:51:02;;;;;;;;;;;24.20;36.80;;;;;;5452660;26;19960;-63
2024/04/18 01:53:30;;;;;;;;;;;24.20;36.80;;;;;;5454645;26;19940;-62
2024/04/18 01:55:57;;;;;;;;;;;24.20;36.70;;;;;;5454824;26;19944;-64
2024/04/18 01:58:24;;;;;;;;;;;24.20;36.70;;;;;;5455159;26;19932;-63
2024/04/18 02:00:51;;;;;;;;;;;24.20;36.70;;;;;;5454307;26;19939;-63
2024/04/18 02:03:18;;;;;;;;;;;24.20;36.60;;;;;;5452243;26;19935;-63
2024/04/18 02:05:46;;;;;;;;;;;24.20;36.70;;;;;;5454812;26;19929;-64
2024/04/18 02:08:13;;;;;;;;;;;24.20;36.70;;;;;;5454528;26;19933;-63
2024/04/18 02:10:41;;;;;;;;;;;24.20;36.70;;;;;;5455077;26;19935;-62
2024/04/18 02:13:08;;;;;;;;;;;24.20;36.70;;;;;;5454857;26;20013;-63
2024/04/18 02:15:35;;;;;;;;;;;24.20;36.70;;;;;;5454382;26;19997;-68
2024/04/18 02:18:02;;;;;;;;;;;24.20;36.70;;;;;;5454919;26;20290;-63
2024/04/18 02:20:29;;;;;;;;;;;24.20;36.70;;;;;;5454595;26;19928;-65
2024/04/18 02:22:56;;;;;;;;;;;24.20;36.70;;;;;;5452140;26;19929;-63
2024/04/18 02:25:23;;;;;;;;;;;24.10;36.70;;;;;;5452757;26;19928;-62
2024/04/18 02:27:50;;;;;;;;;;;24.10;37.20;;;;;;5454154;26;20270;-63
2024/04/18 02:30:17;;;;;;;;;;;24.10;36.60;;;;;;5453812;26;19940;-63
2024/04/18 02:32:44;;;;;;;;;;;24.10;36.70;;;;;;5453542;26;19936;-62
2024/04/18 02:35:11;;;;;;;;;;;24.10;37.20;;;;;;5454327;26;20001;-62
2024/04/18 02:37:38;;;;;;;;;;;24.10;36.70;;;;;;5454219;26;20479;-62
2024/04/18 02:40:06;;;;;;;;;;;24.10;36.60;;;;;;5453698;26;19928;-62
2024/04/18 02:42:33;;;;;;;;;;;24.10;36.70;;;;;;5453815;26;19935;-62
2024/04/18 02:45:00;;;;;;;;;;;24.10;36.60;;;;;;5453597;26;19932;-62
2024/04/18 02:47:27;;;;;;;;;;;24.10;36.60;;;;;;5453990;26;19928;-63
2024/04/18 02:49:54;;;;;;;;;;;24.10;36.60;;;;;;5454518;26;19940;-62
2024/04/18 02:52:23;;;;;;;;;;;24.10;36.60;;;;;;5453704;26;19932;-62
2024/04/18 02:54:53;;;;;;;;;;;24.10;36.70;;;;;;5453154;26;20396;-62
2024/04/18 02:57:21;;;;;;;;;;;24.10;36.70;;;;;;5454169;26;19937;-62
2024/04/18 02:59:48;;;;;;;;;;;24.10;36.70;;;;;;5454038;26;19936;-62
2024/04/18 03:02:15;;;;;;;;;;;24.10;36.70;;;;;;5452808;26;19929;-63
2024/04/18 03:04:42;;;;;;;;;;;24.10;36.70;;;;;;5453716;26;19940;-62
2024/04/18 03:07:09;;;;;;;;;;;24.10;36.60;;;;;;5453366;26;19929;-63
2024/04/18 03:09:36;;;;;;;;;;;24.10;36.60;;;;;;5452357;26;19936;-62
2024/04/18 03:12:03;;;;;;;;;;;24.10;36.60;;;;;;5453378;26;19929;-62
2024/04/18 03:14:30;;;;;;;;;;;24.10;36.60;;;;;;5453064;26;19929;-62
2024/04/18 03:16:57;;;;;;;;;;;24.10;36.60;;;;;;5454014;26;19929;-62
2024/04/18 03:19:24;;;;;;;;;;;24.10;36.60;;;;;;5453977;26;19928;-63
2024/04/18 03:21:51;;;;;;;;;;;24.10;36.60;;;;;;5453438;26;19937;-63
2024/04/18 03:24:20;;;;;;;;;;;24.10;36.60;;;;;;5453356;26;20258;-63
2024/04/18 03:26:47;;;;;;;;;;;24.10;36.60;;;;;;5453305;26;19929;-62
2024/04/18 03:29:14;;;;;;;;;;;24.10;36.60;;;;;;5439074;26;19937;-63
2024/04/18 03:31:42;;;;;;;;;;;24.10;36.60;;;;;;5416826;26;19928;-62
2024/04/18 03:34:09;;;;;;;;;;;24.10;36.60;;;;;;5417227;26;19999;-62
2024/04/18 03:36:40;;;;;;;;;;;24.10;36.60;;;;;;5417322;26;19929;-62
2024/04/18 03:39:09;;;;;;;;;;;24.10;36.60;;;;;;5425482;26;19929;-62
2024/04/18 03:41:37;;;;;;;;;;;24.10;36.60;;;;;;5450900;26;19929;-62
2024/04/18 03:44:07;;;;;;;;;;;24.10;36.60;;;;;;5450226;26;20370;-62
2024/04/18 03:46:35;;;;;;;;;;;24.00;36.60;;;;;;5434901;26;19997;-62
2024/04/18 03:49:02;;;;;;;;;;;24.00;36.60;;;;;;5436161;26;20457;-62
2024/04/18 03:51:30;;;;;;;;;;;24.00;36.60;;;;;;5431394;26;19936;-62
2024/04/18 03:53:57;;;;;;;;;;;24.00;36.60;;;;;;5415457;26;19975;-62
2024/04/18 03:56:24;;;;;;;;;;;24.00;36.70;;;;;;5416636;26;19940;-63
2024/04/18 03:58:52;;;;;;;;;;;24.00;36.60;;;;;;5417415;26;19941;-62
2024/04/18 04:01:19;;;;;;;;;;;24.00;36.60;;;;;;5416822;26;19933;-63
2024/04/18 04:03:46;;;;;;;;;;;24.00;36.60;;;;;;5414238;26;19935;-62
2024/04/18 04:06:15;;;;;;;;;;;24.10;36.70;;;;;;5415583;26;20266;-62
2024/04/18 04:08:42;;;;;;;;;;;24.10;37.20;;;;;;5446465;26;20422;-62
2024/04/18 04:11:09;;;;;;;;;;;24.10;36.70;;;;;;5452678;26;19948;-62
2024/04/18 04:13:36;;;;;;;;;;;24.10;36.70;;;;;;5452510;26;19977;-62
2024/04/18 04:16:03;;;;;;;;;;;24.10;36.70;;;;;;5453145;26;19928;-62
2024/04/18 04:18:31;;;;;;;;;;;24.10;36.60;;;;;;5451109;26;20384;-63
2024/04/18 04:20:58;;;;;;;;;;;24.10;36.60;;;;;;5430797;26;19936;-63
2024/04/18 04:23:26;;;;;;;;;;;24.10;36.60;;;;;;5432962;26;19974;-63
2024/04/18 04:25:53;;;;;;;;;;;24.10;36.50;;;;;;5436000;26;19929;-63
2024/04/18 04:28:20;;;;;;;;;;;24.10;36.50;;;;;;5416396;26;20481;-62
2024/04/18 04:30:47;;;;;;;;;;;24.10;36.50;;;;;;5428322;26;19952;-62
2024/04/18 04:33:14;;;;;;;;;;;24.10;36.50;;;;;;5439398;26;19936;-62
2024/04/18 04:35:41;;;;;;;;;;;24.10;36.50;;;;;;5452342;26;19938;-62
2024/04/18 04:38:08;;;;;;;;;;;24.20;36.60;;;;;;5429803;26;19936;-62
2024/04/18 04:40:35;;;;;;;;;;;24.10;36.50;;;;;;5442179;26;20359;-63
2024/04/18 04:43:02;;;;;;;;;;;24.10;36.20;;;;;;5420089;26;20286;-62
2024/04/18 04:45:29;;;;;;;;;;;24.10;36.00;;;;;;5416956;26;20371;-63
2024/04/18 04:47:56;;;;;;;;;;;24.10;36.00;;;;;;5415965;26;19937;-63
2024/04/18 04:50:24;;;;;;;;;;;24.20;35.90;;;;;;5415753;26;20002;-62
2024/04/18 04:52:51;;;;;;;;;;;24.20;35.90;;;;;;5414538;26;20382;-63
2024/04/18 04:55:18;;;;;;;;;;;24.20;35.70;;;;;;5416607;26;20379;-62
2024/04/18 04:57:45;;;;;;;;;;;24.20;35.70;;;;;;5416546;26;19929;-63
2024/04/18 05:00:13;;;;;;;;;;;24.20;35.70;;;;;;5416959;26;20373;-63
2024/04/18 05:02:40;;;;;;;;;;;24.20;35.60;;;;;;5418103;26;19939;-63
2024/04/18 05:05:10;;;;;;;;;;;24.20;35.50;;;;;;5451506;26;19936;-62
2024/04/18 05:07:37;;;;;;;;;;;24.20;35.40;;;;;;5450758;26;20270;-62
2024/04/18 05:10:04;;;;;;;;;;;24.20;35.30;;;;;;5448294;26;19929;-62
2024/04/18 05:12:31;;;;;;;;;;;24.20;35.30;;;;;;5450325;26;19944;-62
2024/04/18 05:14:58;;;;;;;;;;;24.20;35.20;;;;;;5449627;26;19997;-62
2024/04/18 05:17:26;;;;;;;;;;;24.20;35.10;;;;;;5442226;26;20381;-62
2024/04/18 05:19:53;;;;;;;;;;;24.30;35.00;;;;;;5433587;26;19929;-63
2024/04/18 05:22:20;;;;;;;;;;;24.30;34.90;;;;;;5441535;26;19959;-63
2024/04/18 05:24:47;;;;;;;;;;;24.30;34.90;;;;;;5446843;26;19936;-63
2024/04/18 05:27:14;;;;;;;;;;;24.40;34.80;;;;;;5447336;26;19936;-64
2024/04/18 05:32:28;;;;;;;;;;;24.40;34.50;;;;;;5441342;26;19933;-63
2024/04/18 05:34:55;;;;;;;;;;;24.40;34.40;;;;;;5445296;26;19929;-62
2024/04/18 05:37:22;;;;;;;;;;;24.50;34.50;;;;;;5438332;26;20373;-62
2024/04/18 05:39:49;;;;;;;;;;;24.50;34.40;;;;;;5438996;26;20430;-65
2024/04/18 05:42:17;;;;;;;;;;;24.50;34.40;;;;;;5434763;26;19936;-62
2024/04/18 05:44:44;;;;;;;;;;;24.50;34.60;;;;;;5441785;26;19984;-62
2024/04/18 05:47:11;;;;;;;;;;;24.50;34.60;;;;;;5441269;26;19932;-65
2024/04/18 05:49:38;;;;;;;;;;;24.50;34.70;;;;;;5441351;26;19948;-68
2024/04/18 05:52:05;;;;;;;;;;;24.50;34.80;;;;;;5433424;26;19939;-65
2024/04/18 05:54:32;;;;;;;;;;;24.50;35.00;;;;;;5445856;26;20008;-67
2024/04/18 05:56:59;;;;;;;;;;;24.50;34.70;;;;;;5438263;26;19928;-66
2024/04/18 05:59:26;;;;;;;;;;;24.60;34.80;;;;;;5435561;26;19928;-64
2024/04/18 06:01:53;;;;;;;;;;;24.60;34.70;;;;;;5438589;26;19933;-66
2024/04/18 06:04:20;;;;;;;;;;;24.60;34.80;;;;;;5437837;26;19956;-61
2024/04/18 06:06:47;;;;;;;;;;;24.60;34.70;;;;;;5442747;26;19929;-62
2024/04/18 06:09:15;;;;;;;;;;;24.60;34.60;;;;;;5442317;26;19928;-66
2024/04/18 06:11:43;;;;;;;;;;;24.70;34.70;;;;;;5438904;26;20638;-64
2024/04/18 06:14:10;;;;;;;;;;;24.70;34.60;;;;;;5432842;26;19928;-64
2024/04/18 06:16:37;;;;;;;;;;;24.70;34.50;;;;;;5435881;26;20286;-64
2024/04/18 06:19:04;;;;;;;;;;;24.70;34.30;;;;;;5439440;26;19935;-64
2024/04/18 06:21:31;;;;;;;;;;;24.70;34.10;;;;;;5437416;26;19936;-63
2024/04/18 06:23:58;;;;;;;;;;;24.70;34.10;;;;;;5440256;26;19929;-64
2024/04/18 06:26:25;;;;;;;;;;;24.80;33.90;;;;;;5442103;26;19928;-66
2024/04/18 06:28:52;;;;;;;;;;;24.80;33.80;;;;;;5436211;26;19928;-66
2024/04/18 06:31:19;;;;;;;;;;;24.90;33.60;;;;;;5439471;26;19935;-66
2024/04/18 06:33:46;;;;;;;;;;;24.90;33.50;;;;;;5439350;26;19970;-66
2024/04/18 06:36:14;;;;;;;;;;;24.90;33.40;;;;;;5432348;26;19957;-64
2024/04/18 06:38:41;;;;;;;;;;;24.90;33.40;;;;;;5433441;26;19944;-65
2024/04/18 06:41:08;;;;;;;;;;;24.90;33.30;;;;;;5431497;26;19928;-62
2024/04/18 06:43:35;;;;;;;;;;;25.00;33.30;;;;;;5434663;26;19979;-64
2024/04/18 06:46:02;;;;;;;;;;;25.00;33.30;;;;;;5433898;26;20282;-63
2024/04/18 06:48:29;;;;;;;;;;;25.00;33.20;;;;;;5433442;26;19944;-66
2024/04/18 06:50:56;;;;;;;;;;;25.10;33.10;;;;;;5430828;26;20286;-67
2024/04/18 06:53:23;;;;;;;;;;;25.10;33.00;;;;;;5432535;26;20276;-68
2024/04/18 06:55:50;;;;;;;;;;;25.10;32.60;;;;;;5440763;26;19937;-65
2024/04/18 06:58:17;;;;;;;;;;;25.10;32.50;;;;;;5439479;26;20508;-64
2024/04/18 07:00:47;;;;;;;;;;;25.20;32.40;;;;;;5433483;26;19964;-62
2024/04/18 07:03:15;;;;;;;;;;;25.20;32.30;;;;;;5435508;26;19937;-65
2024/04/18 07:05:43;;;;;;;;;;;25.30;32.10;;;;;;5436238;26;19940;-64
2024/04/18 07:08:10;;;;;;;;;;;25.30;31.60;;;;;;5435831;26;19935;-64
2024/04/18 07:10:38;;;;;;;;;;;25.30;31.60;;;;;;5436228;26;19936;-66
2024/04/18 07:13:08;;;;;;;;;;;25.40;31.40;;;;;;5397817;26;20330;-65
2024/04/18 07:15:36;;;;;;;;;;;25.40;31.20;;;;;;5433912;26;20010;-64
2024/04/18 07:18:03;;;;;;;;;;;25.40;31.10;;;;;;5427369;26;19932;-64
2024/04/18 07:20:31;;;;;;;;;;;25.40;31.10;;;;;;5437169;26;19948;-65
2024/04/18 07:22:58;;;;;;;;;;;25.40;30.90;;;;;;5458281;26;20297;-65
2024/04/18 07:25:25;;;;;;;;;;;25.40;30.80;;;;;;5428968;26;19940;-64
2024/04/18 07:27:53;;;;;;;;;;;25.40;30.70;;;;;;5434270;26;19994;-64
2024/04/18 07:30:21;;;;;;;;;;;25.40;30.60;;;;;;5436452;26;19935;-64
2024/04/18 07:32:48;;;;;;;;;;;25.40;30.40;;;;;;5436049;26;20451;-63
2024/04/18 07:35:15;;;;;;;;;;;25.50;30.40;;;;;;5434464;26;19997;-65
2024/04/18 07:37:42;;;;;;;;;;;25.50;30.30;;;;;;5439109;26;19928;-65
2024/04/18 07:40:15;;;;;;;;;;;25.50;30.00;;;;;;5437640;26;20381;-63
2024/04/18 07:42:42;;;;;;;;;;;25.50;29.90;;;;;;5428552;26;19929;-64
2024/04/18 07:45:09;;;;;;;;;;;25.50;29.80;;;;;;5442105;26;19997;-63
2024/04/18 07:47:38;;;;;;;;;;;25.50;29.70;;;;;;5434697;26;20288;-64
2024/04/18 07:50:06;;;;;;;;;;;25.50;29.80;;;;;;5427452;26;19936;-64
2024/04/18 07:52:33;;;;;;;;;;;25.50;29.60;;;;;;5430925;26;19932;-65
2024/04/18 07:55:00;;;;;;;;;;;25.50;29.50;;;;;;5424355;26;20328;-63
2024/04/18 07:57:31;;;;;;;;;;;25.50;29.50;;;;;;5440591;26;19980;-63
2024/04/18 07:59:59;;;;;;;;;;;25.50;29.60;;;;;;5434450;26;19936;-63
2024/04/18 08:02:28;;;;;;;;;;;25.50;29.80;;;;;;5432611;26;19935;-66
2024/04/18 08:04:58;;;;;;;;;;;25.50;29.70;;;;;;5434166;26;19936;-64
2024/04/18 08:07:29;;;;;;;;;;;25.50;29.80;;;;;;5441391;26;19928;-62
2024/04/18 08:10:01;;;;;;;;;;;25.50;29.90;;;;;;5433724;26;19997;-63
2024/04/18 08:12:34;;;;;;;;;;;25.50;30.00;;;;;;5445645;26;19941;-62
2024/04/18 08:15:08;;;;;;;;;;;25.50;30.20;;;;;;5436379;26;20563;-64
2024/04/18 08:17:43;;;;;;;;;;;25.60;30.40;;;;;;5437037;26;20386;-63
2024/04/18 08:20:10;;;;;;;;;;;25.60;30.10;;;;;;5441304;26;19940;-63
2024/04/18 08:22:37;;;;;;;;;;;25.70;30.20;;;;;;5435314;26;19936;-64
2024/04/18 08:25:06;;;;;;;;;;;25.70;30.30;;;;;;5433187;26;19936;-64
2024/04/18 08:27:33;;;;;;;;;;;25.70;30.50;;;;;;5435017;26;19928;-64
2024/04/18 08:30:01;;;;;;;;;;;25.70;30.40;;;;;;5444280;26;19956;-64
2024/04/18 08:32:28;;;;;;;;;;;25.70;30.60;;;;;;5434194;26;19943;-64
2024/04/18 08:34:55;;;;;;;;;;;25.80;30.60;;;;;;5445983;26;19956;-65
2024/04/18 08:37:23;;;;;;;;;;;25.80;30.70;;;;;;5433983;26;19939;-65
2024/04/18 08:39:50;;;;;;;;;;;25.80;30.40;;;;;;5441045;26;19929;-64
2024/04/18 08:42:22;;;;;;;;;;;25.90;30.50;;;;;;5427421;26;20331;-65
2024/04/18 08:44:55;;;;;;;;;;;25.90;30.30;;;;;;5438275;26;19928;-66
2024/04/18 08:47:24;;;;;;;;;;;26.00;30.40;;;;;;5441141;26;19928;-64
2024/04/18 08:49:52;;;;;;;;;;;26.10;30.40;;;;;;5436587;26;19929;-64
2024/04/18 08:52:20;;;;;;;;;;;26.10;30.20;;;;;;5430550;26;20374;-63
2024/04/18 08:54:47;;;;;;;;;;;26.20;30.30;;;;;;5433825;26;19933;-61
2024/04/18 08:57:18;;;;;;;;;;;26.30;30.20;;;;;;5430060;26;19929;-65
2024/04/18 08:59:47;;;;;;;;;;;26.30;30.00;;;;;;5440214;26;20017;-64
2024/04/18 09:02:15;;;;;;;;;;;26.30;30.00;;;;;;5431659;26;19928;-65
2024/04/18 09:04:43;;;;;;;;;;;26.40;30.00;;;;;;5433461;26;19941;-64
2024/04/18 09:07:10;;;;;;;;;;;26.30;29.90;;;;;;5428662;26;19948;-63
2024/04/18 09:09:37;;;;;;;;;;;26.30;30.00;;;;;;5433876;26;20365;-64
2024/04/18 09:12:05;;;;;;;;;;;26.30;29.90;;;;;;5432361;26;19940;-63
2024/04/18 09:14:33;;;;;;;;;;;26.30;29.90;;;;;;5436579;26;20001;-64
2024/04/18 09:17:00;;;;;;;;;;;26.20;30.00;;;;;;5425803;26;19935;-65
2024/04/18 09:19:27;;;;;;;;;;;26.20;30.00;;;;;;5438166;26;19998;-60
2024/04/18 09:21:54;;;;;;;;;;;26.30;30.00;;;;;;5432391;26;19937;-58
2024/04/18 09:24:21;;;;;;;;;;;26.30;30.00;;;;;;5441155;26;19928;-58
2024/04/18 09:26:49;;;;;;;;;;;26.30;30.00;;;;;;5438619;26;19940;-58
2024/04/18 09:29:16;;;;;;;;;;;26.40;30.10;;;;;;5434792;26;19937;-58
2024/04/18 09:31:43;;;;;;;;;;;26.40;30.00;;;;;;5437140;26;19937;-60
2024/04/18 09:34:13;;;;;;;;;;;26.40;30.10;;;;;;5439760;26;19953;-60
2024/04/18 09:36:41;;;;;;;;;;;26.50;30.00;;;;;;5433618;26;19928;-58
2024/04/18 09:39:10;;;;;;;;;;;26.50;30.00;;;;;;5431227;26;19957;-59
2024/04/18 09:41:39;;;;;;;;;;;26.50;29.90;;;;;;5441835;26;20031;-60
2024/04/18 09:44:15;;;;;;;;;;;26.50;29.90;;;;;;5426996;26;19952;-59
2024/04/18 09:46:42;;;;;;;;;;;26.60;29.80;;;;;;5435845;26;19943;-59
2024/04/18 09:49:09;;;;;;;;;;;26.50;29.70;;;;;;5442048;26;19928;-59
2024/04/18 09:51:38;;;;;;;;;;;26.50;29.80;;;;;;5437325;26;19998;-59
2024/04/18 09:54:06;;;;;;;;;;;26.50;29.80;;;;;;5434781;26;19928;-59
2024/04/18 09:56:34;;;;;;;;;;;26.60;29.90;;;;;;5434972;26;19932;-61
2024/04/18 09:59:02;;;;;;;;;;;26.60;29.80;;;;;;5428575;26;19997;-60
2024/04/18 10:01:32;;;;;;;;;;;26.60;29.70;;;;;;5440289;26;19935;-60
2024/04/18 10:03:59;;;;;;;;;;;26.60;29.70;;;;;;5437111;26;19928;-60
2024/04/18 10:06:36;;;;;;;;;;;26.60;29.70;;;;;;5440909;26;19928;-60
2024/04/18 10:09:05;;;;;;;;;;;26.60;29.70;;;;;;5438527;26;19939;-60
2024/04/18 10:11:33;;;;;;;;;;;26.60;29.70;;;;;;5434742;26;20389;-60
2024/04/18 10:14:01;;;;;;;;;;;26.60;29.60;;;;;;5445594;26;19929;-60
2024/04/18 10:16:28;;;;;;;;;;;26.60;29.70;;;;;;5451336;26;19964;-60
2024/04/18 10:18:55;;;;;;;;;;;26.60;29.70;;;;;;5436746;26;19935;-60
2024/04/18 10:21:25;;;;;;;;;;;26.60;29.80;;;;;;5437168;26;19936;-60
2024/04/18 10:24:09;;;;;;;;;;;26.60;29.70;;;;;;5445949;26;19928;-60
2024/04/18 10:26:37;;;;;;;;;;;26.60;29.70;;;;;;5442357;26;20489;-60
2024/04/18 10:29:20;;;;;;;;;;;26.60;29.70;;;;;;5435821;26;19928;-60
2024/04/18 10:31:47;;;;;;;;;;;26.70;29.60;;;;;;5443753;26;19929;-61
2024/04/18 10:34:15;;;;;;;;;;;26.70;29.60;;;;;;5427166;26;20360;-61
2024/04/18 10:36:45;;;;;;;;;;;26.80;29.60;;;;;;5403437;26;19935;-61
2024/04/18 10:39:26;;;;;;;;;;;26.80;29.60;;;;;;5433049;26;19941;-59
2024/04/18 10:41:57;;;;;;;;;;;26.80;29.50;;;;;;5473503;26;19960;-60
2024/04/18 10:44:24;;;;;;;;;;;26.80;29.40;;;;;;5438683;26;19938;-60
2024/04/18 10:46:54;;;;;;;;;;;26.90;29.50;;;;;;5433175;26;19932;-60
2024/04/18 10:49:21;;;;;;;;;;;26.90;29.40;;;;;;5440460;26;19936;-60
2024/04/18 10:51:49;;;;;;;;;;;26.90;29.30;;;;;;5428485;26;19928;-60
2024/04/18 10:54:17;;;;;;;;;;;26.90;29.30;;;;;;5398139;26;20492;-63
2024/04/18 10:56:44;;;;;;;;;;;26.90;29.40;;;;;;5393527;26;19936;-60
2024/04/18 10:59:11;;;;;;;;;;;26.90;29.40;;;;;;5432236;26;19948;-63
2024/04/18 11:01:39;;;;;;;;;;;27.00;29.30;;;;;;5428712;26;19935;-64
2024/04/18 11:04:07;;;;;;;;;;;27.00;29.20;;;;;;5429208;26;19936;-64
2024/04/18 11:06:38;;;;;;;;;;;27.00;29.20;;;;;;5434933;26;19936;-65
2024/04/18 11:09:05;;;;;;;;;;;27.00;29.20;;;;;;5433679;26;19941;-63
2024/04/18 11:11:35;;;;;;;;;;;27.10;29.20;;;;;;5435303;26;19948;-62
2024/04/18 11:14:02;;;;;;;;;;;27.10;29.10;;;;;;5434846;26;20247;-65
2024/04/18 11:16:31;;;;;;;;;;;27.10;29.00;;;;;;5433100;26;19935;-64
2024/04/18 11:18:59;;;;;;;;;;;27.20;29.10;;;;;;5437384;26;19982;-66
2024/04/18 11:21:27;;;;;;;;;;;27.20;29.00;;;;;;5408183;26;19935;-65
2024/04/18 11:23:55;;;;;;;;;;;27.20;29.00;;;;;;5430556;26;19933;-65
2024/04/18 11:26:22;;;;;;;;;;;27.20;29.00;;;;;;5432320;26;19933;-65
2024/04/18 11:28:50;;;;;;;;;;;27.20;29.00;;;;;;5433152;26;20000;-64
2024/04/18 11:31:18;;;;;;;;;;;27.20;28.80;;;;;;5432269;26;19998;-64
2024/04/18 11:33:45;;;;;;;;;;;27.20;28.90;;;;;;5436014;26;19929;-63
2024/04/18 11:36:13;;;;;;;;;;;27.30;29.30;;;;;;5433833;26;20351;-63
2024/04/18 11:38:40;;;;;;;;;;;27.30;28.80;;;;;;5431065;26;19937;-64
2024/04/18 11:41:08;;;;;;;;;;;27.30;28.80;;;;;;5436201;26;20342;-65
2024/04/18 11:43:35;;;;;;;;;;;27.20;28.70;;;;;;5439355;26;20324;-64
2024/04/18 11:46:02;;;;;;;;;;;27.20;28.70;;;;;;5433088;26;19948;-65
2024/04/18 11:48:29;;;;;;;;;;;27.20;28.70;;;;;;5433003;26;19929;-65
2024/04/18 11:50:56;;;;;;;;;;;27.30;28.70;;;;;;5432931;26;19940;-63
2024/04/18 11:53:26;;;;;;;;;;;27.30;28.70;;;;;;5435372;26;20359;-64
2024/04/18 11:55:58;;;;;;;;;;;27.20;28.50;;;;;;5439570;26;19944;-63
2024/04/18 11:58:28;;;;;;;;;;;27.30;28.60;;;;;;5430028;26;19976;-64
2024/04/18 12:00:55;;;;;;;;;;;27.30;28.60;;;;;;5436211;26;19940;-62
2024/04/18 12:03:25;;;;;;;;;;;27.30;28.50;;;;;;5434810;26;19939;-63
2024/04/18 12:05:53;;;;;;;;;;;27.30;28.50;;;;;;5430171;26;19932;-64
2024/04/18 12:08:20;;;;;;;;;;;27.30;28.40;;;;;;5432354;26;19972;-63
2024/04/18 12:10:47;;;;;;;;;;;27.30;28.10;;;;;;5431318;26;19935;-61
2024/04/18 12:13:14;;;;;;;;;;;27.30;28.10;;;;;;5428611;26;19929;-63
2024/04/18 12:15:42;;;;;;;;;;;27.30;28.20;;;;;;5433749;26;19936;-63
2024/04/18 12:18:09;;;;;;;;;;;27.30;28.50;;;;;;5435733;26;20642;-62
2024/04/18 12:20:36;;;;;;;;;;;27.30;28.50;;;;;;5428277;26;19928;-62
2024/04/18 12:23:03;;;;;;;;;;;27.30;28.50;;;;;;5427166;26;19935;-63
2024/04/18 12:25:30;;;;;;;;;;;27.30;28.40;;;;;;5428312;26;20366;-62
2024/04/18 12:27:57;;;;;;;;;;;27.30;28.30;;;;;;5439507;26;19944;-62
2024/04/18 12:30:24;;;;;;;;;;;27.40;28.30;;;;;;5436147;26;19936;-61
2024/04/18 12:32:55;;;;;;;;;;;27.40;28.30;;;;;;5433649;26;19928;-60
2024/04/18 12:35:22;;;;;;;;;;;27.40;28.20;;;;;;5436787;26;19928;-59
2024/04/18 12:37:49;;;;;;;;;;;27.40;28.20;;;;;;5439211;26;19998;-60
2024/04/18 12:40:16;;;;;;;;;;;27.40;28.10;;;;;;5433796;26;20149;-61
2024/04/18 12:42:45;;;;;;;;;;;27.40;28.10;;;;;;5437266;26;19956;-61
2024/04/18 12:45:12;;;;;;;;;;;27.40;28.10;;;;;;5430219;26;19952;-61
2024/04/18 12:47:40;;;;;;;;;;;27.40;28.10;;;;;;5435332;26;19932;-62
2024/04/18 12:50:07;;;;;;;;;;;27.30;28.10;;;;;;5435713;26;19943;-61
2024/04/18 12:52:34;;;;;;;;;;;27.30;28.10;;;;;;5438569;26;19935;-63
2024/04/18 12:55:01;;;;;;;;;;;27.30;28.20;;;;;;5436038;26;19929;-66
2024/04/18 12:57:28;;;;;;;;;;;27.30;28.20;;;;;;5438256;26;20366;-65
2024/04/18 12:59:55;;;;;;;;;;;27.30;28.20;;;;;;5435443;26;19936;-67
2024/04/18 13:02:22;;;;;;;;;;;27.30;28.20;;;;;;5434279;26;19928;-65
2024/04/18 13:04:50;;;;;;;;;;;27.30;28.20;;;;;;5434171;26;20344;-65
2024/04/18 13:07:17;;;;;;;;;;;27.20;28.10;;;;;;5437789;26;19957;-65
2024/04/18 13:09:44;;;;;;;;;;;27.20;28.10;;;;;;5439130;26;19940;-65
2024/04/18 13:12:11;;;;;;;;;;;27.20;28.10;;;;;;5441109;26;20379;-66
2024/04/18 13:14:38;;;;;;;;;;;27.20;28.20;;;;;;5433535;26;19955;-65
2024/04/18 13:17:05;;;;;;;;;;;27.10;28.20;;;;;;5437427;26;20439;-64
2024/04/18 13:19:32;;;;;;;;;;;27.20;28.20;;;;;;5441053;26;19929;-64
2024/04/18 13:21:59;;;;;;;;;;;27.20;28.20;;;;;;5437721;26;19936;-64
2024/04/18 13:24:27;;;;;;;;;;;27.10;28.20;;;;;;5437640;26;20496;-61
2024/04/18 13:26:55;;;;;;;;;;;27.20;28.20;;;;;;5439858;26;19929;-61
2024/04/18 13:29:24;;;;;;;;;;;27.10;28.10;;;;;;5437088;26;19941;-60
2024/04/18 13:31:52;;;;;;;;;;;27.20;28.20;;;;;;5435125;26;19935;-60
2024/04/18 13:34:19;;;;;;;;;;;27.20;28.10;;;;;;5431900;26;19989;-61
2024/04/18 13:36:46;;;;;;;;;;;27.20;28.10;;;;;;5439329;26;19936;-60
2024/04/18 13:39:14;;;;;;;;;;;27.20;28.00;;;;;;5443290;26;20354;-60
2024/04/18 13:41:45;;;;;;;;;;;27.20;27.90;;;;;;5445075;26;19932;-60
2024/04/18 13:44:12;;;;;;;;;;;27.20;27.80;;;;;;5438047;26;20593;-61
2024/04/18 13:46:39;;;;;;;;;;;27.20;27.90;;;;;;5431208;26;21521;-62
2024/04/18 13:49:06;;;;;;;;;;;27.20;27.80;;;;;;5465647;26;19936;-59
2024/04/18 13:51:33;;;;;;;;;;;27.20;27.90;;;;;;5436129;26;19929;-60
2024/04/18 13:54:00;;;;;;;;;;;27.20;28.00;;;;;;5441444;26;19940;-61
2024/04/18 13:56:28;;;;;;;;;;;27.20;28.00;;;;;;5436430;26;19950;-61
2024/04/18 13:58:55;;;;;;;;;;;27.20;27.90;;;;;;5440522;26;19936;-60
2024/04/18 14:01:22;;;;;;;;;;;27.20;27.90;;;;;;5445433;26;19998;-60
2024/04/18 14:03:49;;;;;;;;;;;27.10;27.90;;;;;;5437177;26;20379;-59
2024/04/18 14:06:16;;;;;;;;;;;27.10;27.90;;;;;;5443107;26;19940;-60
2024/04/18 14:08:44;;;;;;;;;;;27.00;27.80;;;;;;5437697;26;19937;-60
2024/04/18 14:11:11;;;;;;;;;;;27.10;27.80;;;;;;5445018;26;19939;-60
2024/04/18 14:13:38;;;;;;;;;;;27.00;27.70;;;;;;5451464;26;19937;-60
2024/04/18 14:18:53;;;;;;;;;;;27.00;27.70;;;;;;5428679;26;19936;-59
2024/04/18 14:21:20;;;;;;;;;;;27.00;27.70;;;;;;5450800;26;20397;-59
2024/04/18 14:23:48;;;;;;;;;;;27.00;27.80;;;;;;5443392;26;19928;-59